sensor_id;sensor_type;location;lat;lon;timestamp;P1;durP1;ratioP1;P2;durP2;ratioP2
21665;SDS011;10994;45.486;9.190;2024-03-08T00:00:07;12.93;;;9.53;;
21665;SDS011;10994;45.486;9.190;2024-03-08T00:02:39;14.17;;;9.60;;
21665;SDS011;10994;45.486;9.190;2024-03-08T00:05:05;13.07;;;9.73;;
21665;SDS011;10994;45.486;9.190;2024-03-08T00:07:32;11.93;;;9.50;;
21665;SDS011;10994;45.486;9.190;2024-03-08T00:09:58;13.07;;;9.87;;
21665;SDS011;10994;45.486;9.190;2024-03-08T00:12:24;14.47;;;10.40;;
21665;SDS011;10994;45.486;9.190;2024-03-08T00:14:52;14.20;;;10.43;;
21665;SDS011;10994;45.486;9.190;2024-03-08T00:17:19;13.40;;;10.33;;
21665;SDS011;10994;45.486;9.190;2024-03-08T00:19:48;13.37;;;10.53;;
21665;SDS011;10994;45.486;9.190;2024-03-08T00:22:15;15.03;;;10.90;;
21665;SDS011;10994;45.486;9.190;2024-03-08T00:24:41;12.23;;;9.90;;
21665;SDS011;10994;45.486;9.190;2024-03-08T00:27:07;18.07;;;11.23;;
21665;SDS011;10994;45.486;9.190;2024-03-08T00:29:34;12.90;;;10.43;;
21665;SDS011;10994;45.486;9.190;2024-03-08T00:32:00;16.73;;;11.13;;
21665;SDS011;10994;45.486;9.190;2024-03-08T00:34:26;14.83;;;11.43;;
21665;SDS011;10994;45.486;9.190;2024-03-08T00:36:52;14.80;;;11.27;;
21665;SDS011;10994;45.486;9.190;2024-03-08T00:39:18;14.23;;;11.70;;
21665;SDS011;10994;45.486;9.190;2024-03-08T00:41:46;15.23;;;10.53;;
21665;SDS011;10994;45.486;9.190;2024-03-08T00:44:12;17.13;;;12.03;;
21665;SDS011;10994;45.486;9.190;2024-03-08T00:46:38;22.40;;;11.93;;
21665;SDS011;10994;45.486;9.190;2024-03-08T00:49:03;14.47;;;11.93;;
21665;SDS011;10994;45.486;9.190;2024-03-08T00:51:29;14.73;;;11.23;;
21665;SDS011;10994;45.486;9.190;2024-03-08T00:53:55;13.80;;;11.10;;
21665;SDS011;10994;45.486;9.190;2024-03-08T00:56:20;15.80;;;10.77;;
21665;SDS011;10994;45.486;9.190;2024-03-08T00:58:46;14.23;;;11.60;;
21665;SDS011;10994;45.486;9.190;2024-03-08T01:01:15;13.93;;;10.30;;
21665;SDS011;10994;45.486;9.190;2024-03-08T01:03:43;12.90;;;10.17;;
21665;SDS011;10994;45.486;9.190;2024-03-08T01:06:09;12.83;;;10.67;;
21665;SDS011;10994;45.486;9.190;2024-03-08T01:08:34;13.03;;;10.77;;
21665;SDS011;10994;45.486;9.190;2024-03-08T01:11:03;13.63;;;10.63;;
21665;SDS011;10994;45.486;9.190;2024-03-08T01:13:30;12.30;;;10.27;;
21665;SDS011;10994;45.486;9.190;2024-03-08T01:15:56;12.03;;;9.60;;
21665;SDS011;10994;45.486;9.190;2024-03-08T01:18:22;13.67;;;10.17;;
21665;SDS011;10994;45.486;9.190;2024-03-08T01:20:47;11.40;;;9.77;;
21665;SDS011;10994;45.486;9.190;2024-03-08T01:23:13;16.20;;;10.10;;
21665;SDS011;10994;45.486;9.190;2024-03-08T01:25:39;16.87;;;9.33;;
21665;SDS011;10994;45.486;9.190;2024-03-08T01:28:06;12.33;;;9.77;;
21665;SDS011;10994;45.486;9.190;2024-03-08T01:30:32;12.17;;;9.73;;
21665;SDS011;10994;45.486;9.190;2024-03-08T01:32:59;15.07;;;9.83;;
21665;SDS011;10994;45.486;9.190;2024-03-08T01:35:25;14.60;;;9.80;;
21665;SDS011;10994;45.486;9.190;2024-03-08T01:37:52;11.23;;;9.33;;
21665;SDS011;10994;45.486;9.190;2024-03-08T01:40:18;11.73;;;9.30;;
21665;SDS011;10994;45.486;9.190;2024-03-08T01:42:43;12.50;;;8.80;;
21665;SDS011;10994;45.486;9.190;2024-03-08T01:45:10;13.07;;;9.43;;
21665;SDS011;10994;45.486;9.190;2024-03-08T01:47:35;11.53;;;9.40;;
21665;SDS011;10994;45.486;9.190;2024-03-08T01:50:02;11.77;;;8.67;;
21665;SDS011;10994;45.486;9.190;2024-03-08T01:52:31;14.77;;;9.47;;
21665;SDS011;10994;45.486;9.190;2024-03-08T01:55:01;13.67;;;8.90;;
21665;SDS011;10994;45.486;9.190;2024-03-08T01:57:29;12.67;;;8.97;;
21665;SDS011;10994;45.486;9.190;2024-03-08T01:59:58;13.03;;;8.57;;
21665;SDS011;10994;45.486;9.190;2024-03-08T02:02:32;10.73;;;8.57;;
21665;SDS011;10994;45.486;9.190;2024-03-08T02:05:00;13.37;;;9.00;;
21665;SDS011;10994;45.486;9.190;2024-03-08T02:07:26;11.83;;;8.87;;
21665;SDS011;10994;45.486;9.190;2024-03-08T02:09:51;11.23;;;9.10;;
21665;SDS011;10994;45.486;9.190;2024-03-08T02:12:17;26.47;;;10.43;;
21665;SDS011;10994;45.486;9.190;2024-03-08T02:14:45;13.37;;;9.23;;
21665;SDS011;10994;45.486;9.190;2024-03-08T02:17:12;9.57;;;8.47;;
21665;SDS011;10994;45.486;9.190;2024-03-08T02:19:38;12.97;;;9.87;;
21665;SDS011;10994;45.486;9.190;2024-03-08T02:22:04;13.70;;;9.03;;
21665;SDS011;10994;45.486;9.190;2024-03-08T02:24:31;12.93;;;9.23;;
21665;SDS011;10994;45.486;9.190;2024-03-08T02:26:57;12.67;;;10.03;;
21665;SDS011;10994;45.486;9.190;2024-03-08T02:29:23;11.97;;;9.43;;
21665;SDS011;10994;45.486;9.190;2024-03-08T02:31:52;16.43;;;11.30;;
21665;SDS011;10994;45.486;9.190;2024-03-08T02:34:18;14.00;;;10.30;;
21665;SDS011;10994;45.486;9.190;2024-03-08T02:36:43;16.47;;;10.40;;
21665;SDS011;10994;45.486;9.190;2024-03-08T02:39:09;15.40;;;10.23;;
21665;SDS011;10994;45.486;9.190;2024-03-08T02:41:35;12.90;;;10.23;;
21665;SDS011;10994;45.486;9.190;2024-03-08T02:44:01;14.50;;;10.90;;
21665;SDS011;10994;45.486;9.190;2024-03-08T02:46:27;13.23;;;10.63;;
21665;SDS011;10994;45.486;9.190;2024-03-08T02:48:53;13.87;;;10.40;;
21665;SDS011;10994;45.486;9.190;2024-03-08T02:51:18;14.90;;;10.60;;
21665;SDS011;10994;45.486;9.190;2024-03-08T02:53:45;13.77;;;10.43;;
21665;SDS011;10994;45.486;9.190;2024-03-08T02:56:13;11.57;;;9.47;;
21665;SDS011;10994;45.486;9.190;2024-03-08T02:58:41;14.30;;;10.03;;
21665;SDS011;10994;45.486;9.190;2024-03-08T03:01:08;12.60;;;9.10;;
21665;SDS011;10994;45.486;9.190;2024-03-08T03:03:35;16.37;;;10.73;;
21665;SDS011;10994;45.486;9.190;2024-03-08T03:06:01;15.00;;;10.37;;
21665;SDS011;10994;45.486;9.190;2024-03-08T03:08:26;15.67;;;10.57;;
21665;SDS011;10994;45.486;9.190;2024-03-08T03:10:53;12.87;;;10.67;;
21665;SDS011;10994;45.486;9.190;2024-03-08T03:13:21;13.70;;;9.43;;
21665;SDS011;10994;45.486;9.190;2024-03-08T03:15:47;13.23;;;10.90;;
21665;SDS011;10994;45.486;9.190;2024-03-08T03:18:12;14.23;;;10.23;;
21665;SDS011;10994;45.486;9.190;2024-03-08T03:20:38;13.97;;;11.00;;
21665;SDS011;10994;45.486;9.190;2024-03-08T03:23:08;17.00;;;11.73;;
21665;SDS011;10994;45.486;9.190;2024-03-08T03:25:34;15.27;;;11.07;;
21665;SDS011;10994;45.486;9.190;2024-03-08T03:28:03;14.03;;;11.10;;
21665;SDS011;10994;45.486;9.190;2024-03-08T03:30:30;17.10;;;12.00;;
21665;SDS011;10994;45.486;9.190;2024-03-08T03:32:59;16.03;;;11.17;;
21665;SDS011;10994;45.486;9.190;2024-03-08T03:35:26;18.13;;;11.73;;
21665;SDS011;10994;45.486;9.190;2024-03-08T03:37:52;18.73;;;12.00;;
21665;SDS011;10994;45.486;9.190;2024-03-08T03:40:38;16.13;;;11.77;;
21665;SDS011;10994;45.486;9.190;2024-03-08T03:43:05;15.77;;;11.13;;
21665;SDS011;10994;45.486;9.190;2024-03-08T03:45:31;16.53;;;12.10;;
21665;SDS011;10994;45.486;9.190;2024-03-08T03:47:59;17.47;;;12.13;;
21665;SDS011;10994;45.486;9.190;2024-03-08T03:50:29;16.83;;;12.00;;
21665;SDS011;10994;45.486;9.190;2024-03-08T03:52:55;15.50;;;11.67;;
21665;SDS011;10994;45.486;9.190;2024-03-08T03:55:20;18.03;;;11.47;;
21665;SDS011;10994;45.486;9.190;2024-03-08T03:57:47;16.33;;;11.40;;
21665;SDS011;10994;45.486;9.190;2024-03-08T04:00:12;19.27;;;15.73;;
21665;SDS011;10994;45.486;9.190;2024-03-08T04:02:40;18.23;;;12.63;;
21665;SDS011;10994;45.486;9.190;2024-03-08T04:05:08;15.13;;;11.57;;
21665;SDS011;10994;45.486;9.190;2024-03-08T04:07:35;15.27;;;12.23;;
21665;SDS011;10994;45.486;9.190;2024-03-08T04:10:02;16.33;;;11.80;;
21665;SDS011;10994;45.486;9.190;2024-03-08T04:12:28;17.67;;;12.73;;
21665;SDS011;10994;45.486;9.190;2024-03-08T04:14:55;15.83;;;11.47;;
21665;SDS011;10994;45.486;9.190;2024-03-08T04:17:21;17.47;;;11.67;;
21665;SDS011;10994;45.486;9.190;2024-03-08T04:19:47;16.43;;;13.27;;
21665;SDS011;10994;45.486;9.190;2024-03-08T04:22:13;15.47;;;11.77;;
21665;SDS011;10994;45.486;9.190;2024-03-08T04:24:39;17.33;;;12.17;;
21665;SDS011;10994;45.486;9.190;2024-03-08T04:27:06;16.20;;;12.80;;
21665;SDS011;10994;45.486;9.190;2024-03-08T04:29:31;15.97;;;12.13;;
21665;SDS011;10994;45.486;9.190;2024-03-08T04:31:59;14.80;;;11.50;;
21665;SDS011;10994;45.486;9.190;2024-03-08T04:34:28;16.67;;;12.67;;
21665;SDS011;10994;45.486;9.190;2024-03-08T04:36:56;16.03;;;12.67;;
21665;SDS011;10994;45.486;9.190;2024-03-08T04:39:23;15.67;;;12.40;;
21665;SDS011;10994;45.486;9.190;2024-03-08T04:41:49;16.60;;;11.90;;
21665;SDS011;10994;45.486;9.190;2024-03-08T04:44:15;20.90;;;12.80;;
21665;SDS011;10994;45.486;9.190;2024-03-08T04:46:42;17.20;;;13.33;;
21665;SDS011;10994;45.486;9.190;2024-03-08T04:49:09;17.00;;;12.80;;
21665;SDS011;10994;45.486;9.190;2024-03-08T04:51:36;17.37;;;12.90;;
21665;SDS011;10994;45.486;9.190;2024-03-08T04:54:02;16.63;;;12.67;;
21665;SDS011;10994;45.486;9.190;2024-03-08T04:56:29;16.87;;;12.57;;
21665;SDS011;10994;45.486;9.190;2024-03-08T04:58:55;18.77;;;13.43;;
21665;SDS011;10994;45.486;9.190;2024-03-08T05:01:21;16.13;;;11.93;;
21665;SDS011;10994;45.486;9.190;2024-03-08T05:03:47;16.20;;;11.80;;
21665;SDS011;10994;45.486;9.190;2024-03-08T05:06:15;15.00;;;11.57;;
21665;SDS011;10994;45.486;9.190;2024-03-08T05:08:41;16.10;;;12.00;;
21665;SDS011;10994;45.486;9.190;2024-03-08T05:11:07;17.53;;;12.00;;
21665;SDS011;10994;45.486;9.190;2024-03-08T05:13:32;17.17;;;11.43;;
21665;SDS011;10994;45.486;9.190;2024-03-08T05:15:59;17.87;;;11.93;;
21665;SDS011;10994;45.486;9.190;2024-03-08T05:18:25;16.47;;;11.53;;
21665;SDS011;10994;45.486;9.190;2024-03-08T05:20:53;16.40;;;12.30;;
21665;SDS011;10994;45.486;9.190;2024-03-08T05:23:19;16.17;;;11.13;;
21665;SDS011;10994;45.486;9.190;2024-03-08T05:25:45;15.00;;;12.13;;
21665;SDS011;10994;45.486;9.190;2024-03-08T05:28:14;15.20;;;11.23;;
21665;SDS011;10994;45.486;9.190;2024-03-08T05:30:40;15.40;;;11.20;;
21665;SDS011;10994;45.486;9.190;2024-03-08T05:33:06;16.00;;;11.07;;
21665;SDS011;10994;45.486;9.190;2024-03-08T05:35:35;19.03;;;11.20;;
21665;SDS011;10994;45.486;9.190;2024-03-08T05:38:01;14.87;;;11.10;;
21665;SDS011;10994;45.486;9.190;2024-03-08T05:40:27;16.47;;;12.70;;
21665;SDS011;10994;45.486;9.190;2024-03-08T05:42:56;14.53;;;10.87;;
21665;SDS011;10994;45.486;9.190;2024-03-08T05:45:23;16.10;;;11.03;;
21665;SDS011;10994;45.486;9.190;2024-03-08T05:47:50;19.30;;;12.07;;
21665;SDS011;10994;45.486;9.190;2024-03-08T05:50:17;14.57;;;10.37;;
21665;SDS011;10994;45.486;9.190;2024-03-08T05:52:46;13.37;;;10.10;;
21665;SDS011;10994;45.486;9.190;2024-03-08T05:55:14;14.93;;;11.27;;
21665;SDS011;10994;45.486;9.190;2024-03-08T05:57:41;12.53;;;9.77;;
21665;SDS011;10994;45.486;9.190;2024-03-08T06:00:07;14.17;;;10.40;;
21665;SDS011;10994;45.486;9.190;2024-03-08T06:02:39;14.87;;;10.90;;
21665;SDS011;10994;45.486;9.190;2024-03-08T06:05:09;14.57;;;10.60;;
21665;SDS011;10994;45.486;9.190;2024-03-08T06:07:36;13.40;;;8.97;;
21665;SDS011;10994;45.486;9.190;2024-03-08T06:10:08;13.60;;;9.10;;
21665;SDS011;10994;45.486;9.190;2024-03-08T06:12:37;11.20;;;8.53;;
21665;SDS011;10994;45.486;9.190;2024-03-08T06:15:07;13.03;;;9.87;;
21665;SDS011;10994;45.486;9.190;2024-03-08T06:17:35;12.97;;;8.93;;
21665;SDS011;10994;45.486;9.190;2024-03-08T06:20:04;13.20;;;9.83;;
21665;SDS011;10994;45.486;9.190;2024-03-08T06:22:36;13.47;;;8.77;;
21665;SDS011;10994;45.486;9.190;2024-03-08T06:25:03;12.53;;;8.77;;
21665;SDS011;10994;45.486;9.190;2024-03-08T06:27:29;11.53;;;8.43;;
21665;SDS011;10994;45.486;9.190;2024-03-08T06:29:55;12.17;;;8.80;;
21665;SDS011;10994;45.486;9.190;2024-03-08T06:32:20;11.90;;;8.20;;
21665;SDS011;10994;45.486;9.190;2024-03-08T06:34:46;10.73;;;8.10;;
21665;SDS011;10994;45.486;9.190;2024-03-08T06:37:12;11.73;;;8.33;;
21665;SDS011;10994;45.486;9.190;2024-03-08T06:39:39;15.07;;;9.20;;
21665;SDS011;10994;45.486;9.190;2024-03-08T06:42:05;11.07;;;8.17;;
21665;SDS011;10994;45.486;9.190;2024-03-08T06:44:31;10.20;;;7.83;;
21665;SDS011;10994;45.486;9.190;2024-03-08T06:46:57;10.40;;;8.33;;
21665;SDS011;10994;45.486;9.190;2024-03-08T06:49:23;16.40;;;8.77;;
21665;SDS011;10994;45.486;9.190;2024-03-08T06:51:49;11.53;;;8.47;;
21665;SDS011;10994;45.486;9.190;2024-03-08T06:54:14;11.60;;;8.63;;
21665;SDS011;10994;45.486;9.190;2024-03-08T06:56:40;11.57;;;8.60;;
21665;SDS011;10994;45.486;9.190;2024-03-08T06:59:06;14.50;;;10.03;;
21665;SDS011;10994;45.486;9.190;2024-03-08T07:01:31;11.33;;;8.73;;
21665;SDS011;10994;45.486;9.190;2024-03-08T07:03:59;14.03;;;8.93;;
21665;SDS011;10994;45.486;9.190;2024-03-08T07:06:27;10.80;;;8.77;;
21665;SDS011;10994;45.486;9.190;2024-03-08T07:08:53;11.47;;;9.67;;
21665;SDS011;10994;45.486;9.190;2024-03-08T07:11:19;15.00;;;9.67;;
21665;SDS011;10994;45.486;9.190;2024-03-08T07:13:45;12.20;;;8.53;;
21665;SDS011;10994;45.486;9.190;2024-03-08T07:16:11;10.47;;;8.10;;
21665;SDS011;10994;45.486;9.190;2024-03-08T07:18:37;13.50;;;7.60;;
21665;SDS011;10994;45.486;9.190;2024-03-08T07:21:08;11.03;;;8.17;;
21665;SDS011;10994;45.486;9.190;2024-03-08T07:23:34;9.13;;;7.47;;
21665;SDS011;10994;45.486;9.190;2024-03-08T07:26:27;13.23;;;9.20;;
21665;SDS011;10994;45.486;9.190;2024-03-08T07:28:54;11.77;;;8.43;;
21665;SDS011;10994;45.486;9.190;2024-03-08T07:31:20;11.83;;;9.13;;
21665;SDS011;10994;45.486;9.190;2024-03-08T07:34:03;9.93;;;7.60;;
21665;SDS011;10994;45.486;9.190;2024-03-08T07:36:33;11.60;;;8.07;;
21665;SDS011;10994;45.486;9.190;2024-03-08T07:39:00;10.87;;;8.67;;
21665;SDS011;10994;45.486;9.190;2024-03-08T07:41:25;12.47;;;8.30;;
21665;SDS011;10994;45.486;9.190;2024-03-08T07:43:51;11.20;;;7.60;;
21665;SDS011;10994;45.486;9.190;2024-03-08T07:46:17;11.77;;;7.47;;
21665;SDS011;10994;45.486;9.190;2024-03-08T07:48:43;10.83;;;7.33;;
21665;SDS011;10994;45.486;9.190;2024-03-08T07:51:10;13.33;;;8.47;;
21665;SDS011;10994;45.486;9.190;2024-03-08T07:53:37;9.37;;;7.20;;
21665;SDS011;10994;45.486;9.190;2024-03-08T07:56:03;11.17;;;8.43;;
21665;SDS011;10994;45.486;9.190;2024-03-08T07:58:34;14.70;;;8.30;;
21665;SDS011;10994;45.486;9.190;2024-03-08T08:01:00;12.33;;;7.77;;
21665;SDS011;10994;45.486;9.190;2024-03-08T08:03:26;14.63;;;7.70;;
21665;SDS011;10994;45.486;9.190;2024-03-08T08:05:52;14.33;;;8.47;;
21665;SDS011;10994;45.486;9.190;2024-03-08T08:08:18;13.07;;;8.33;;
21665;SDS011;10994;45.486;9.190;2024-03-08T08:10:44;13.43;;;7.20;;
21665;SDS011;10994;45.486;9.190;2024-03-08T08:13:10;11.63;;;8.13;;
21665;SDS011;10994;45.486;9.190;2024-03-08T08:15:36;13.07;;;8.03;;
21665;SDS011;10994;45.486;9.190;2024-03-08T08:18:02;11.50;;;7.63;;
21665;SDS011;10994;45.486;9.190;2024-03-08T08:20:30;12.60;;;7.23;;
21665;SDS011;10994;45.486;9.190;2024-03-08T08:22:56;12.37;;;7.73;;
21665;SDS011;10994;45.486;9.190;2024-03-08T08:25:24;10.83;;;8.03;;
21665;SDS011;10994;45.486;9.190;2024-03-08T08:27:49;10.93;;;7.63;;
21665;SDS011;10994;45.486;9.190;2024-03-08T08:30:15;15.80;;;7.63;;
21665;SDS011;10994;45.486;9.190;2024-03-08T08:32:41;15.10;;;7.47;;
21665;SDS011;10994;45.486;9.190;2024-03-08T08:35:12;10.73;;;7.63;;
21665;SDS011;10994;45.486;9.190;2024-03-08T08:37:41;11.63;;;7.50;;
21665;SDS011;10994;45.486;9.190;2024-03-08T08:40:07;9.13;;;7.20;;
21665;SDS011;10994;45.486;9.190;2024-03-08T08:42:39;9.53;;;6.83;;
21665;SDS011;10994;45.486;9.190;2024-03-08T08:45:06;10.07;;;6.67;;
21665;SDS011;10994;45.486;9.190;2024-03-08T08:47:36;11.90;;;8.30;;
21665;SDS011;10994;45.486;9.190;2024-03-08T08:50:02;21.77;;;14.63;;
21665;SDS011;10994;45.486;9.190;2024-03-08T08:52:30;11.00;;;7.40;;
21665;SDS011;10994;45.486;9.190;2024-03-08T08:54:57;8.47;;;6.57;;
21665;SDS011;10994;45.486;9.190;2024-03-08T08:57:23;8.03;;;6.70;;
21665;SDS011;10994;45.486;9.190;2024-03-08T08:59:49;9.37;;;6.67;;
21665;SDS011;10994;45.486;9.190;2024-03-08T09:02:15;14.77;;;8.17;;
21665;SDS011;10994;45.486;9.190;2024-03-08T09:04:42;12.90;;;7.87;;
21665;SDS011;10994;45.486;9.190;2024-03-08T09:07:08;10.17;;;7.77;;
21665;SDS011;10994;45.486;9.190;2024-03-08T09:09:34;9.00;;;7.33;;
21665;SDS011;10994;45.486;9.190;2024-03-08T09:12:00;10.97;;;7.63;;
21665;SDS011;10994;45.486;9.190;2024-03-08T09:14:26;12.93;;;7.37;;
21665;SDS011;10994;45.486;9.190;2024-03-08T09:16:52;9.73;;;7.37;;
21665;SDS011;10994;45.486;9.190;2024-03-08T09:19:21;11.23;;;7.17;;
21665;SDS011;10994;45.486;9.190;2024-03-08T09:21:49;12.60;;;7.33;;
21665;SDS011;10994;45.486;9.190;2024-03-08T09:24:14;16.23;;;7.73;;
21665;SDS011;10994;45.486;9.190;2024-03-08T09:26:41;13.23;;;7.97;;
21665;SDS011;10994;45.486;9.190;2024-03-08T09:29:08;10.43;;;7.60;;
21665;SDS011;10994;45.486;9.190;2024-03-08T09:31:36;9.43;;;7.40;;
21665;SDS011;10994;45.486;9.190;2024-03-08T09:34:03;11.63;;;8.27;;
21665;SDS011;10994;45.486;9.190;2024-03-08T09:36:29;12.40;;;7.47;;
21665;SDS011;10994;45.486;9.190;2024-03-08T09:38:57;14.60;;;7.63;;
21665;SDS011;10994;45.486;9.190;2024-03-08T09:41:23;9.33;;;6.53;;
21665;SDS011;10994;45.486;9.190;2024-03-08T09:43:49;15.97;;;7.83;;
21665;SDS011;10994;45.486;9.190;2024-03-08T09:46:14;11.03;;;7.70;;
21665;SDS011;10994;45.486;9.190;2024-03-08T09:48:41;11.77;;;7.33;;
21665;SDS011;10994;45.486;9.190;2024-03-08T09:51:07;12.33;;;7.97;;
21665;SDS011;10994;45.486;9.190;2024-03-08T09:53:33;13.07;;;7.40;;
21665;SDS011;10994;45.486;9.190;2024-03-08T09:56:00;11.50;;;8.30;;
21665;SDS011;10994;45.486;9.190;2024-03-08T09:58:28;9.93;;;8.43;;
21665;SDS011;10994;45.486;9.190;2024-03-08T10:00:57;9.93;;;7.83;;
21665;SDS011;10994;45.486;9.190;2024-03-08T10:03:23;8.77;;;6.63;;
21665;SDS011;10994;45.486;9.190;2024-03-08T10:05:51;11.50;;;8.53;;
21665;SDS011;10994;45.486;9.190;2024-03-08T10:08:17;9.73;;;7.30;;
21665;SDS011;10994;45.486;9.190;2024-03-08T10:10:42;14.33;;;9.00;;
21665;SDS011;10994;45.486;9.190;2024-03-08T10:13:09;12.23;;;8.53;;
21665;SDS011;10994;45.486;9.190;2024-03-08T10:15:36;12.23;;;8.00;;
21665;SDS011;10994;45.486;9.190;2024-03-08T10:18:03;14.77;;;7.80;;
21665;SDS011;10994;45.486;9.190;2024-03-08T10:20:33;11.70;;;8.50;;
21665;SDS011;10994;45.486;9.190;2024-03-08T10:23:01;11.17;;;8.17;;
21665;SDS011;10994;45.486;9.190;2024-03-08T10:25:29;12.23;;;8.73;;
21665;SDS011;10994;45.486;9.190;2024-03-08T10:27:56;10.57;;;8.77;;
21665;SDS011;10994;45.486;9.190;2024-03-08T10:30:22;13.97;;;9.50;;
21665;SDS011;10994;45.486;9.190;2024-03-08T10:32:48;10.67;;;8.47;;
21665;SDS011;10994;45.486;9.190;2024-03-08T10:35:14;12.27;;;8.33;;
21665;SDS011;10994;45.486;9.190;2024-03-08T10:40:12;12.23;;;8.30;;
21665;SDS011;10994;45.486;9.190;2024-03-08T10:43:02;10.07;;;7.03;;
21665;SDS011;10994;45.486;9.190;2024-03-08T10:45:35;11.70;;;8.03;;
21665;SDS011;10994;45.486;9.190;2024-03-08T10:50:43;14.57;;;8.47;;
21665;SDS011;10994;45.486;9.190;2024-03-08T10:53:15;11.00;;;7.37;;
21665;SDS011;10994;45.486;9.190;2024-03-08T10:55:43;12.10;;;8.10;;
21665;SDS011;10994;45.486;9.190;2024-03-08T10:58:11;10.83;;;7.57;;
21665;SDS011;10994;45.486;9.190;2024-03-08T11:00:37;11.00;;;7.90;;
21665;SDS011;10994;45.486;9.190;2024-03-08T11:03:03;8.17;;;7.10;;
21665;SDS011;10994;45.486;9.190;2024-03-08T11:08:03;15.10;;;8.87;;
21665;SDS011;10994;45.486;9.190;2024-03-08T11:10:52;8.30;;;7.40;;
21665;SDS011;10994;45.486;9.190;2024-03-08T11:18:35;10.07;;;7.57;;
21665;SDS011;10994;45.486;9.190;2024-03-08T11:21:06;9.50;;;7.97;;
21665;SDS011;10994;45.486;9.190;2024-03-08T11:23:37;11.87;;;7.43;;
21665;SDS011;10994;45.486;9.190;2024-03-08T11:26:26;9.47;;;7.13;;
21665;SDS011;10994;45.486;9.190;2024-03-08T11:28:51;11.60;;;7.97;;
21665;SDS011;10994;45.486;9.190;2024-03-08T11:33:47;10.70;;;7.33;;
21665;SDS011;10994;45.486;9.190;2024-03-08T11:36:21;11.13;;;7.90;;
21665;SDS011;10994;45.486;9.190;2024-03-08T11:38:49;14.80;;;7.63;;
21665;SDS011;10994;45.486;9.190;2024-03-08T11:41:20;10.73;;;7.37;;
21665;SDS011;10994;45.486;9.190;2024-03-08T11:43:48;9.10;;;7.20;;
21665;SDS011;10994;45.486;9.190;2024-03-08T11:46:15;8.03;;;6.80;;
21665;SDS011;10994;45.486;9.190;2024-03-08T11:48:43;9.20;;;6.73;;
21665;SDS011;10994;45.486;9.190;2024-03-08T11:51:12;8.27;;;6.57;;
21665;SDS011;10994;45.486;9.190;2024-03-08T11:53:40;9.33;;;7.27;;
21665;SDS011;10994;45.486;9.190;2024-03-08T11:56:10;9.53;;;6.73;;
21665;SDS011;10994;45.486;9.190;2024-03-08T11:58:40;11.07;;;7.53;;
21665;SDS011;10994;45.486;9.190;2024-03-08T12:01:09;10.93;;;7.00;;
21665;SDS011;10994;45.486;9.190;2024-03-08T12:03:42;7.63;;;6.83;;
21665;SDS011;10994;45.486;9.190;2024-03-08T12:06:08;9.57;;;7.30;;
21665;SDS011;10994;45.486;9.190;2024-03-08T12:08:35;10.87;;;7.27;;
21665;SDS011;10994;45.486;9.190;2024-03-08T12:11:01;10.10;;;6.80;;
21665;SDS011;10994;45.486;9.190;2024-03-08T12:13:32;11.60;;;6.80;;
21665;SDS011;10994;45.486;9.190;2024-03-08T12:15:59;10.13;;;6.93;;
21665;SDS011;10994;45.486;9.190;2024-03-08T12:18:35;12.40;;;7.20;;
21665;SDS011;10994;45.486;9.190;2024-03-08T12:21:10;10.93;;;6.73;;
21665;SDS011;10994;45.486;9.190;2024-03-08T12:23:39;13.47;;;7.00;;
21665;SDS011;10994;45.486;9.190;2024-03-08T12:28:38;10.23;;;7.03;;
21665;SDS011;10994;45.486;9.190;2024-03-08T12:31:06;12.50;;;8.33;;
21665;SDS011;10994;45.486;9.190;2024-03-08T12:33:37;11.03;;;6.87;;
21665;SDS011;10994;45.486;9.190;2024-03-08T12:36:16;9.90;;;6.50;;
21665;SDS011;10994;45.486;9.190;2024-03-08T12:38:46;10.50;;;7.30;;
21665;SDS011;10994;45.486;9.190;2024-03-08T12:41:13;8.17;;;7.37;;
21665;SDS011;10994;45.486;9.190;2024-03-08T12:43:40;11.53;;;7.43;;
21665;SDS011;10994;45.486;9.190;2024-03-08T12:46:06;14.77;;;6.80;;
21665;SDS011;10994;45.486;9.190;2024-03-08T12:48:34;9.90;;;7.53;;
21665;SDS011;10994;45.486;9.190;2024-03-08T12:51:01;10.50;;;7.47;;
21665;SDS011;10994;45.486;9.190;2024-03-08T12:53:30;10.47;;;7.23;;
21665;SDS011;10994;45.486;9.190;2024-03-08T12:55:56;7.77;;;6.67;;
21665;SDS011;10994;45.486;9.190;2024-03-08T12:58:22;10.87;;;7.30;;
21665;SDS011;10994;45.486;9.190;2024-03-08T13:00:48;10.23;;;6.97;;
21665;SDS011;10994;45.486;9.190;2024-03-08T13:03:14;10.70;;;7.33;;
21665;SDS011;10994;45.486;9.190;2024-03-08T13:05:41;10.73;;;7.53;;
21665;SDS011;10994;45.486;9.190;2024-03-08T13:08:08;10.10;;;6.80;;
21665;SDS011;10994;45.486;9.190;2024-03-08T13:10:41;9.80;;;7.23;;
21665;SDS011;10994;45.486;9.190;2024-03-08T13:13:10;11.27;;;6.97;;
21665;SDS011;10994;45.486;9.190;2024-03-08T13:15:37;9.97;;;7.10;;
21665;SDS011;10994;45.486;9.190;2024-03-08T13:18:03;9.60;;;7.80;;
21665;SDS011;10994;45.486;9.190;2024-03-08T13:20:36;8.30;;;7.20;;
21665;SDS011;10994;45.486;9.190;2024-03-08T13:23:03;18.67;;;11.57;;
21665;SDS011;10994;45.486;9.190;2024-03-08T13:25:30;8.47;;;7.30;;
21665;SDS011;10994;45.486;9.190;2024-03-08T13:27:57;8.40;;;7.33;;
21665;SDS011;10994;45.486;9.190;2024-03-08T13:30:25;11.13;;;7.40;;
21665;SDS011;10994;45.486;9.190;2024-03-08T13:32:52;9.57;;;7.67;;
21665;SDS011;10994;45.486;9.190;2024-03-08T13:35:19;9.23;;;6.90;;
21665;SDS011;10994;45.486;9.190;2024-03-08T13:37:49;9.93;;;7.20;;
21665;SDS011;10994;45.486;9.190;2024-03-08T13:40:16;12.67;;;7.80;;
21665;SDS011;10994;45.486;9.190;2024-03-08T13:42:46;8.50;;;7.23;;
21665;SDS011;10994;45.486;9.190;2024-03-08T13:45:14;11.70;;;7.40;;
21665;SDS011;10994;45.486;9.190;2024-03-08T13:47:42;9.27;;;7.50;;
21665;SDS011;10994;45.486;9.190;2024-03-08T13:50:09;9.03;;;6.53;;
21665;SDS011;10994;45.486;9.190;2024-03-08T13:52:42;10.23;;;7.57;;
21665;SDS011;10994;45.486;9.190;2024-03-08T13:55:09;11.53;;;6.77;;
21665;SDS011;10994;45.486;9.190;2024-03-08T13:57:38;11.03;;;6.83;;
21665;SDS011;10994;45.486;9.190;2024-03-08T14:00:04;7.33;;;6.43;;
21665;SDS011;10994;45.486;9.190;2024-03-08T14:02:38;11.23;;;7.03;;
21665;SDS011;10994;45.486;9.190;2024-03-08T14:05:09;10.17;;;7.53;;
21665;SDS011;10994;45.486;9.190;2024-03-08T14:07:36;11.93;;;7.33;;
21665;SDS011;10994;45.486;9.190;2024-03-08T14:10:03;10.73;;;6.50;;
21665;SDS011;10994;45.486;9.190;2024-03-08T14:12:31;7.77;;;6.07;;
21665;SDS011;10994;45.486;9.190;2024-03-08T14:14:57;10.93;;;6.43;;
21665;SDS011;10994;45.486;9.190;2024-03-08T14:17:27;12.67;;;6.87;;
21665;SDS011;10994;45.486;9.190;2024-03-08T14:19:56;8.77;;;6.83;;
21665;SDS011;10994;45.486;9.190;2024-03-08T14:22:22;11.20;;;6.97;;
21665;SDS011;10994;45.486;9.190;2024-03-08T14:24:48;8.07;;;6.47;;
21665;SDS011;10994;45.486;9.190;2024-03-08T14:27:15;10.13;;;7.43;;
21665;SDS011;10994;45.486;9.190;2024-03-08T14:29:43;9.80;;;5.90;;
21665;SDS011;10994;45.486;9.190;2024-03-08T14:32:09;9.17;;;6.93;;
21665;SDS011;10994;45.486;9.190;2024-03-08T14:34:41;8.93;;;6.53;;
21665;SDS011;10994;45.486;9.190;2024-03-08T14:37:10;10.93;;;7.17;;
21665;SDS011;10994;45.486;9.190;2024-03-08T14:39:38;7.93;;;6.60;;
21665;SDS011;10994;45.486;9.190;2024-03-08T14:42:05;7.67;;;5.93;;
21665;SDS011;10994;45.486;9.190;2024-03-08T14:44:33;7.97;;;6.87;;
21665;SDS011;10994;45.486;9.190;2024-03-08T14:47:03;8.60;;;6.67;;
21665;SDS011;10994;45.486;9.190;2024-03-08T14:49:31;9.30;;;7.23;;
21665;SDS011;10994;45.486;9.190;2024-03-08T14:52:01;8.40;;;7.03;;